Saison 2025 · Manche 17

Azerbaijan Grand Prix

2025-09-21 · Baku City Circuit · Azerbaijan · Azerbaijan Grand Prix · 51Lap · 306.049km
Red Bull 1:33:26.408
Victoire par équipe 33pt P1 · P6
Mercedes +14.609
Williams +19.199
Meilleur tour
1:43.388 · L50
Abandon
1
Oscar Piastri L0
Météo
21°/26°
moy. air/piste · sec · humidité 60%
Voiture de sécurité
1
déployée au tour L1
Utilisation des pneus Direction de course
Storylines · This Grand Prix & circuit
Most SC/VSC · all-time P31
Circuit Info
Baku City Circuit Baku, Azerbaijan
51Lap 306.049km 10 courses held (2016–) Record du tour 1:43.009 · Charles Leclerc (2019)
Records Watch · Active drivers ranked at this Grand Prix
P1 Max Verstappen 2 victoires · GP #1
P3 Lewis Hamilton 1 victoires · → Max Verstappen -1
P3 Oscar Piastri 1 victoires · → Max Verstappen -1
P1 Lewis Hamilton 8 départs · GP #1
P1 Carlos Sainz 8 départs · GP #1
P1 Lance Stroll 8 départs · GP #1
Course Trace · position by lap
SC · tours 1–4 départ arrêté SG 1 5 9 13 17 21 25 29 33 37 41 45 49 FIN Verstappen · arrêt aux stands L40 Verstappen VER Verstappen VER Russell · arrêt aux stands L39 Russell RUS Russell RUS Sainz · arrêt aux stands L27 Sainz SAI Sainz SAI Antonelli · arrêt aux stands L18 Antonelli ANT Antonelli ANT Lawson · arrêt aux stands L20 Lawson LAW Lawson LAW Tsunoda · arrêt aux stands L38 Tsunoda TSU Tsunoda TSU Norris · arrêt aux stands L37 Norris NOR Norris NOR Hamilton · arrêt aux stands L36 Hamilton HAM Hamilton HAM Leclerc · arrêt aux stands L19 Leclerc LEC Leclerc LEC Hadjar · arrêt aux stands L29 Hadjar HAD Hadjar HAD Bortoleto · arrêt aux stands L26 Bortoleto BOR Bortoleto BOR Bearman · arrêt aux stands L28 Bearman BEA Bearman BEA Albon · arrêt aux stands L1 Albon · arrêt aux stands L15 Albon · +10s ajouté après la course Albon ALB Albon ALB Ocon · arrêt aux stands L1 Ocon OCO Ocon OCO Alonso · arrêt aux stands L21 · pénalité purgée Alonso ALO Alonso ALO Hülkenberg · arrêt aux stands L36 Hülkenberg HUL Hülkenberg HUL Stroll · arrêt aux stands L37 Stroll STR Stroll STR Gasly · arrêt aux stands L35 Gasly GAS Gasly GAS Colapinto · arrêt aux stands L16 Colapinto COL Colapinto COL Piastri · abandon L0 Piastri PIA Piastri PIA
SC·VSC arrêt aux stands pénalité purgée aux stands SG Grille de départ FIN classement officiel pénalité ajoutée après la course voiture arrêtée position à chaque tour (depuis 1996)
PosPiloteTeamGrilleTourTemps / StatutPoints
1 1 Max Verstappen FL Red Bull 1 51 1:33:26.408 25
2 63 George Russell Mercedes 5 51 +14.609 18
3 55 Carlos Sainz Williams 2 51 +19.199 15
4 12 Andrea Kimi Antonelli Mercedes 4 51 +21.760 12
5 30 Liam Lawson RB F1 Team 3 51 +33.290 10
6 22 Yuki Tsunoda Red Bull 6 51 +33.808 8
7 4 Lando Norris McLaren 7 51 +34.227 6
8 44 Lewis Hamilton Ferrari 12 51 +36.310 4
9 16 Charles Leclerc Ferrari 10 51 +36.774 2
10 6 Isack Hadjar RB F1 Team 8 51 +38.982 1
11 5 Gabriel Bortoleto Sauber 13 51 +1:07.606
12 87 Oliver Bearman Haas F1 Team 15 51 +1:08.262
13 23 Alexander Albon Williams 19 51 +1:12.870
14 31 Esteban Ocon Haas F1 Team 20 51 +1:17.580
15 14 Fernando Alonso Aston Martin 11 51 +1:18.707
16 27 Nico Hülkenberg Sauber 17 51 +1:20.237
17 18 Lance Stroll Aston Martin 14 51 +1:36.392
18 10 Pierre Gasly Alpine F1 Team 18 50 +3.865
19 43 Franco Colapinto Alpine F1 Team 16 50 +6.325
R 81 Oscar Piastri McLaren 9 0 Retired
PosPiloteTeamQ1Q2Q3Écart à la pole
1 1 Max Verstappen Red Bull 1:41.331 1:41.255 1:41.117 POLE Q3
2 55 Carlos Sainz Williams 1:42.635 1:41.675 1:41.595 +0.478 Q3
3 30 Liam Lawson RB F1 Team 1:42.257 1:41.537 1:41.707 +0.420 Q2
4 12 Andrea Kimi Antonelli Mercedes 1:42.247 1:41.464 1:41.717 +0.347 Q2
5 63 George Russell Mercedes 1:41.646 1:41.455 1:42.070 +0.338 Q2
6 22 Yuki Tsunoda Red Bull 1:42.347 1:41.788 1:42.143 +0.671 Q2
7 4 Lando Norris McLaren 1:41.322 1:41.396 1:42.239 +0.205 Q1
8 6 Isack Hadjar RB F1 Team 1:41.656 1:41.647 1:42.372 +0.530 Q2
9 81 Oscar Piastri McLaren 1:41.839 1:41.414 +0.297 Q2
10 16 Charles Leclerc Ferrari 1:41.458 1:41.519 +0.341 Q1
11 14 Fernando Alonso Aston Martin 1:42.211 1:41.857 +0.740 Q2
12 44 Lewis Hamilton Ferrari 1:41.821 1:42.183 +0.704 Q1
13 5 Gabriel Bortoleto Sauber 1:42.511 1:42.277 +1.160 Q2
14 18 Lance Stroll Aston Martin 1:42.101 1:43.061 +0.984 Q1
15 87 Oliver Bearman Haas F1 Team 1:42.666 +1.549 Q1
16 43 Franco Colapinto Alpine F1 Team 1:42.779 +1.662 Q1
17 27 Nico Hülkenberg Sauber 1:42.916 +1.799 Q1
18 10 Pierre Gasly Alpine F1 Team 1:43.139 +2.022 Q1
19 23 Alexander Albon Williams 1:43.778 +2.661 Q1
20 31 Esteban Ocon Haas F1 Team
Grille de départ
Officielle
Final grid as classé, including any depuis la voie des stands départs. Source: Jolpica-F1. The arrow compares the grid slot with the les qualifications classification; hover a drop to see the stewards document behind it.
Aucune donnée pour cette séance.
PosPiloteMeilleur tourÉcartTours
1 4 Lando Norris 1:42.704 19
2 81 Oscar Piastri 1:43.014 +0.310 14
3 16 Charles Leclerc 1:43.256 +0.552 17
4 63 George Russell 1:43.257 +0.553 16
5 23 Alexander Albon 1:43.563 +0.859 17
6 22 Yuki Tsunoda 1:43.738 +1.034 16
7 1 Max Verstappen 1:43.790 +1.086 15
8 55 Carlos Sainz 1:43.859 +1.155 17
9 30 Liam Lawson 1:43.903 +1.199 17
10 6 Isack Hadjar 1:43.975 +1.271 17
11 12 Andrea Kimi Antonelli 1:43.985 +1.281 17
12 27 Nico Hülkenberg 1:43.986 +1.282 18
13 5 Gabriel Bortoleto 1:44.087 +1.383 18
14 44 Lewis Hamilton 1:44.087 +1.383 14
15 14 Fernando Alonso 1:44.139 +1.435 15
16 87 Oliver Bearman 1:44.151 +1.447 17
17 18 Lance Stroll 1:44.329 +1.625 15
18 31 Esteban Ocon 1:44.439 +1.735 15
19 43 Franco Colapinto 1:45.299 +2.595 14
20 10 Pierre Gasly 1:45.418 +2.714 17
Classified by best lap · source OpenF1 (2023+)
PosPiloteMeilleur tourÉcartTours
1 44 Lewis Hamilton 1:41.293 21
2 16 Charles Leclerc 1:41.367 +0.074 23
3 63 George Russell 1:41.770 +0.477 19
4 12 Andrea Kimi Antonelli 1:41.779 +0.486 22
5 87 Oliver Bearman 1:41.891 +0.598 23
6 1 Max Verstappen 1:41.902 +0.609 22
7 30 Liam Lawson 1:41.989 +0.696 22
8 31 Esteban Ocon 1:42.167 +0.874 23
9 23 Alexander Albon 1:42.177 +0.884 24
10 4 Lando Norris 1:42.199 +0.906 7
11 55 Carlos Sainz 1:42.255 +0.962 24
12 81 Oscar Piastri 1:42.295 +1.002 23
13 6 Isack Hadjar 1:42.443 +1.150 23
14 22 Yuki Tsunoda 1:42.444 +1.151 22
15 5 Gabriel Bortoleto 1:42.561 +1.268 22
16 10 Pierre Gasly 1:42.674 +1.381 22
17 18 Lance Stroll 1:42.771 +1.478 24
18 27 Nico Hülkenberg 1:42.820 +1.527 22
19 14 Fernando Alonso 1:42.967 +1.674 24
20 43 Franco Colapinto 1:43.322 +2.029 22
Classified by best lap · source OpenF1 (2023+)
PosPiloteMeilleur tourÉcartTours
1 4 Lando Norris 1:41.223 19
2 1 Max Verstappen 1:41.445 +0.222 19
3 81 Oscar Piastri 1:41.477 +0.254 21
4 44 Lewis Hamilton 1:41.499 +0.276 18
5 12 Andrea Kimi Antonelli 1:41.876 +0.653 17
6 63 George Russell 1:41.964 +0.741 17
7 23 Alexander Albon 1:41.983 +0.760 19
8 87 Oliver Bearman 1:41.985 +0.762 23
9 30 Liam Lawson 1:42.146 +0.923 21
10 16 Charles Leclerc 1:42.209 +0.986 19
11 6 Isack Hadjar 1:42.267 +1.044 22
12 27 Nico Hülkenberg 1:42.428 +1.205 17
13 55 Carlos Sainz 1:42.486 +1.263 17
14 14 Fernando Alonso 1:42.591 +1.368 17
15 43 Franco Colapinto 1:42.789 +1.566 19
16 22 Yuki Tsunoda 1:42.840 +1.617 18
17 31 Esteban Ocon 1:42.868 +1.645 20
18 5 Gabriel Bortoleto 1:43.060 +1.837 16
19 10 Pierre Gasly 1:43.322 +2.099 21
20 18 Lance Stroll 1:43.350 +2.127 17
Classified by best lap · source OpenF1 (2023+)
#PiloteTemps au tourTour
1 1 Max Verstappen 1:43.388 L50
2 1 Max Verstappen 1:43.419 L46
3 1 Max Verstappen 1:43.423 L45
4 1 Max Verstappen 1:43.564 L44
5 1 Max Verstappen 1:43.579 L47
6 1 Max Verstappen 1:43.702 L42
7 63 George Russell 1:43.754 L42
8 1 Max Verstappen 1:43.755 L43
9 63 George Russell 1:43.850 L44
10 6 Isack Hadjar 1:43.884 L50
Top 10 la plus rapide race tours — #1 is the la plus rapide lap of la course(FL).
Arrêts aux stands · comparaison
20s 22s 24s 26s médiane 20.6s George Russell · L39 · 19.809s Nico Hülkenberg · L36 · 19.970s Lewis Hamilton · L36 · 20.062s Max Verstappen · L40 · 20.221s Liam Lawson · L20 · 20.283s Isack Hadjar · L29 · 20.294s Yuki Tsunoda · L38 · 20.323s Alexander Albon · L15 · 20.489s Carlos Sainz · L27 · 20.508s Charles Leclerc · L19 · 20.542s Andrea Kimi Antonelli · L18 · 20.669s Esteban Ocon · L1 · 20.691s Alexander Albon · L1 · 20.758s Gabriel Bortoleto · L26 · 20.845s Franco Colapinto · L16 · 21.088s Oliver Bearman · L28 · 21.194s Pierre Gasly · L35 · 21.500s Lance Stroll · L37 · 21.820s Lando Norris · L37 · 21.975s Fernando Alonso · L21 · 25.768s · pénalité purgée
la plus rapide 19.809s George Russell la plus lente 25.768s Fernando Alonso pénalité purgée temps de passage dans la voie des stands — un point par arrêt
PiloteArrêtTourTempsPassage dans la voie des stands
23 Alexander Albon 1 1 15:06:28 20.758s
31 Esteban Ocon 1 1 15:06:25 20.691s
23 Alexander Albon 2 15 15:34:40 20.489s
43 Franco Colapinto 1 16 15:36:25 21.088s
12 Andrea Kimi Antonelli 1 18 15:39:36 20.669s
16 Charles Leclerc 1 19 15:41:27 20.542s
30 Liam Lawson 1 20 15:43:09 20.283s
14 Fernando Alonso 1 21 15:45:13 25.768s
5 Gabriel Bortoleto 1 26 15:54:05 20.845s
55 Carlos Sainz 1 27 15:55:25 20.508s
87 Oliver Bearman 1 28 15:57:54 21.194s
6 Isack Hadjar 1 29 15:59:19 20.294s
10 Pierre Gasly 1 35 16:10:30 21.500s
27 Nico Hülkenberg 1 36 16:12:10 19.970s
44 Lewis Hamilton 1 36 16:11:29 20.062s
4 Lando Norris 1 37 16:13:07 21.975s
18 Lance Stroll 1 37 16:13:54 21.820s
22 Yuki Tsunoda 1 38 16:14:50 20.323s
63 George Russell 1 39 16:16:26 19.809s
1 Max Verstappen 1 40 16:17:58 20.221s
arrêts
SG 10 20 30 40 L51
1
1
H39
M12·+4
63
1
H38
M13·+6
55
1
M26·+5
H25
12
1
M17·+5
H34
30
1
M19·+6
H32·+1
22
1
H37
M14·+6
4
1
M36
H15
44
1
H35
M16
16
1
M18·+3
H33
6
1
M28·+4
H23·+1
5
1
H25
M26
87
1
H27
M24
23
2
M14
H37
31
1
H51·+1
14
1
M20·+3
H31
27
1
H35
M16
18
1
M36·+3
H15
10
1
H34
M16
43
1
M15
H35
81
0
M1
S Soft M Medium H Hard I Intermediate W Wet SC·VSC arrêt aux stands pénalité purgée aux stands
Course · largeur de barre = tours sur ce train, ·+N = monté usagé avec N tours au compteur · source OpenF1 (2023+)
Composés désignés pour ce Grand Prix
C4 Dur C5 Medium C6 Tendre
Pirelli désigne trois de ses composés slicks pour chaque épreuve ; plus le numéro C est élevé, plus le pneu est tendre. Document FIA ↗
Plus de places gagnées en piste
5
+9
P13→P11
87
+9
P15→P12
23
+9
P19→P13
12
+8
P4→P4
31
+8
P20→P14
16
+7
P10→P9
44
+6
P12→P8
14
+6
P11→P15
Plus de places perdues
Fernando Alonso −10 Gabriel Bortoleto −9 Andrea Kimi Antonelli −8
Course · Somme des places gagnées en piste tour par tour — tour de départ et tours aux stands du pilote exclus. Données de tours de course depuis 1996.
PiloteTypeTourPurgéeInfligéeMotif
81 Oscar Piastri Time penalty 5 Après la course +5s Car 81 moved forward from its start position, prior to the start signal. (5 second time penalty.) Doc 42 ↗
Tour 5 · Purgée Après la course · +5s Car 81 moved forward from its start position, prior to the start signal. (5 second time penalty.) Doc 42 ↗
14 Fernando Alonso Time penalty 5 21 +5s Car 14 moved forward from its start position, prior to the start signal. (5 second time penalty.) Doc 43 ↗
Tour 5 · Purgée 21 · +5s Car 14 moved forward from its start position, prior to the start signal. (5 second time penalty.) Doc 43 ↗
23 Alexander Albon Time penalty 19 Après la course +10s · 2pt Car 23 caused a collision with Car 43 in Turn 5. (10 second time penalty. 2 penalty points (total of 4 for the 12 month period).) Doc 44 ↗
Tour 19 · Purgée Après la course · +10s · 2pt Car 23 caused a collision with Car 43 in Turn 5. (10 second time penalty. 2 penalty points (total of 4 for the 12 month period).) Doc 44 ↗
Tour = tour où la pénalité a été infligée · Purgée = tour où elle a été purgée aux stands (vide : ajoutée au temps de course)
Time, drive-through and stop-go penalties come from race control messages (OpenF1, 2023+). Grille penalties never appear there — the stewards publish them as documents after the session — so they are worked back from the starting grid against the les qualifications classification, which gives places actually lost rather than the figure written in the decision.
PiloteTypeTourPurgéeInfligéeMotif
31 Esteban Ocon 실격 The Car failed the rear wing main plane tip deflection test. (Car 31 is disqualifié from the Qualifications classifications.) Doc 31 ↗
The Car failed the rear wing main plane tip deflection test. (Car 31 is disqualifié from the Qualifications classifications.) Doc 31 ↗
12 Andrea Kimi Antonelli Réprimande The driver of Car 12 overtook two cars between turns 1 and 2 at 16:04. (Pilote: Réprimande (Driving). This is the driver’s 1st reprimand of the season.) Doc 25 ↗
The driver of Car 12 overtook two cars between turns 1 and 2 at 16:04. (Pilote: Réprimande (Driving). This is the driver’s 1st reprimand of the season.) Doc 25 ↗
12 Andrea Kimi Antonelli Tours supprimés DOUBLE YELLOW
DOUBLE YELLOW
55 Carlos Sainz Tours supprimés DOUBLE YELLOW
DOUBLE YELLOW
6 Isack Hadjar Tours supprimés DOUBLE YELLOW
DOUBLE YELLOW
27 Nico Hülkenberg Tours supprimés TRACK LIMITS (PIT)
TRACK LIMITS (PIT)
16 Charles Leclerc Tours supprimés TRACK LIMITS (PIT)
TRACK LIMITS (PIT)
18 Lance Stroll Tours supprimés TRACK LIMITS (PIT)
TRACK LIMITS (PIT)
14 Fernando Alonso Tours supprimés TRACK LIMITS (PIT)
TRACK LIMITS (PIT)
4 Lando Norris Tours supprimés DOUBLE YELLOW
DOUBLE YELLOW
63 George Russell Tours supprimés TRACK LIMITS (PIT)
TRACK LIMITS (PIT)
Tour = tour où la pénalité a été infligée · Purgée = tour où elle a été purgée aux stands (vide : ajoutée au temps de course)
Time, drive-through and stop-go penalties come from race control messages (OpenF1, 2023+). Grille penalties never appear there — the stewards publish them as documents after the session — so they are worked back from the starting grid against the les qualifications classification, which gives places actually lost rather than the figure written in the decision.
PiloteTypeTourPurgéeInfligéeMotif
27 Nico Hülkenberg No further action Car 27 overtook Car 44 under yellow flag conditions at 13:33. (No penalty is applied) Doc 24 ↗
Car 27 overtook Car 44 under yellow flag conditions at 13:33. (No penalty is applied) Doc 24 ↗
Tour = tour où la pénalité a été infligée · Purgée = tour où elle a été purgée aux stands (vide : ajoutée au temps de course)
Time, drive-through and stop-go penalties come from race control messages (OpenF1, 2023+). Grille penalties never appear there — the stewards publish them as documents after the session — so they are worked back from the starting grid against the les qualifications classification, which gives places actually lost rather than the figure written in the decision.
PiloteTypeTourPurgéeInfligéeMotif
81 Oscar Piastri Réprimande The driver of Car 81 failed to slow under yellow flags at 16:33. (Pilote: Réprimande (Driving). This is the driver’s 1st reprimand of the season.) Doc 18 ↗
The driver of Car 81 failed to slow under yellow flags at 16:33. (Pilote: Réprimande (Driving). This is the driver’s 1st reprimand of the season.) Doc 18 ↗
Tour = tour où la pénalité a été infligée · Purgée = tour où elle a été purgée aux stands (vide : ajoutée au temps de course)
Time, drive-through and stop-go penalties come from race control messages (OpenF1, 2023+). Grille penalties never appear there — the stewards publish them as documents after the session — so they are worked back from the starting grid against the les qualifications classification, which gives places actually lost rather than the figure written in the decision.
DocTitreObjetPublished(CET)
1 Event Notes - Pirelli Preview ↗ 2025-09-17 08:12
2025-09-17 08:12 CET
2 Post-Course Checks on Car 04, Italian GP ↗ 4 Lando Norris 2025-09-17 10:43
4 Lando Norris 2025-09-17 10:43 CET
3 Car Display Procedure ↗ 2025-09-18 16:36
2025-09-18 16:36 CET
4 Course Director's Event Notes ↗ 2025-09-18 17:29
2025-09-18 17:29 CET
5 Event Notes - Circuit Map, Pit Lane, Quarantine Zone and Red Zone ↗ 2025-09-18 17:40
2025-09-18 17:40 CET
6 PU elements utilisés per driver up to now ↗ 2025-09-19 06:44
2025-09-19 06:44 CET
7 Self Scrutineering ↗ 2025-09-19 06:45
2025-09-19 06:45 CET
8 Car Presentation Submissions ↗ 2025-09-19 08:09
2025-09-19 08:09 CET
9 Entry List ↗ 2025-09-19 08:32
2025-09-19 08:32 CET
10 Course Director's Event Notes V2 ↗ 2025-09-19 09:37
2025-09-19 09:37 CET
11 Event Notes - Emergency Exit Map ↗ 2025-09-19 09:38
2025-09-19 09:38 CET
12 Course Director's Event Notes V3 ↗ 2025-09-19 10:00
2025-09-19 10:00 CET
13 P1 Classification ↗ 2025-09-19 11:51
2025-09-19 11:51 CET
14 Summons - Car 81 - Alleged failure to slow under yellow flags ↗ 81 Oscar Piastri 2025-09-19 15:07
81 Oscar Piastri 2025-09-19 15:07 CET
15 P2 Classification ↗ 2025-09-19 15:18
2025-09-19 15:18 CET
16 Course Director Notes - SC2 - SC1 Times ↗ 2025-09-19 15:26
2025-09-19 15:26 CET
17 P1 and P2 Scrutineering ↗ 2025-09-19 16:09
2025-09-19 16:09 CET
18 Infringement - Car 81 - Failure to slow under yellow flags ↗ 81 Oscar Piastri 2025-09-19 17:00
81 Oscar Piastri 2025-09-19 17:00 CET
19 Post-Qualifications Procedure ↗ 2025-09-20 07:46
2025-09-20 07:46 CET
20 P3 Classification ↗ 2025-09-20 11:47
2025-09-20 11:47 CET
21 Summons - Car 27 - Alleged overtaking under yellow flag conditions ↗ 27 Nico Hülkenberg 2025-09-20 13:38
27 Nico Hülkenberg 2025-09-20 13:38 CET
22 Summons - Car 12 - Alleged overtaking under yellow flag conditions ↗ 12 Andrea Kimi Antonelli 2025-09-20 14:48
12 Andrea Kimi Antonelli 2025-09-20 14:48 CET
23 Provisional Qualifications Classification ↗ 2025-09-20 16:21
2025-09-20 16:21 CET
24 Infringement - Car 27 - Failure to slow under yellow flags ↗ 27 Nico Hülkenberg 2025-09-20 17:12
27 Nico Hülkenberg 2025-09-20 17:12 CET
25 Infringement - Car 12 - Failure to slow under yellow flags ↗ 12 Andrea Kimi Antonelli 2025-09-20 17:15
12 Andrea Kimi Antonelli 2025-09-20 17:15 CET
26 Failed Rear Wing Main Plane Deflection Test on Car 31 ↗ 31 Esteban Ocon 2025-09-20 17:32
31 Esteban Ocon 2025-09-20 17:32 CET
27 Summons - Car 31 - Alleged breach of technical regulations ↗ 31 Esteban Ocon 2025-09-20 17:42
31 Esteban Ocon 2025-09-20 17:42 CET
28 Infringement - Qualifications Deleted Tour Times ↗ 2025-09-20 18:00
2025-09-20 18:00 CET
29 Infringement - Qualifications Deleted Tour Times - Yellow Drapeaux ↗ 2025-09-20 18:03
2025-09-20 18:03 CET
30 Decision - Qualifications SC2-SC1 Times ↗ 2025-09-20 18:05
2025-09-20 18:05 CET
31 Infringement - Car 31 - Failure of rear wing main plane tip deflection test. ↗ 31 Esteban Ocon 2025-09-20 18:29
31 Esteban Ocon 2025-09-20 18:29 CET
32 P3 and Qualifications Scrutineering ↗ 2025-09-20 18:45
2025-09-20 18:45 CET
33 Decision - Request for car 31 to start la course ↗ 31 Esteban Ocon 2025-09-20 19:04
31 Esteban Ocon 2025-09-20 19:04 CET
34 Final Qualifications Classification ↗ 2025-09-20 19:10
2025-09-20 19:10 CET
35 Provisional Starting Grille ↗ 2025-09-20 19:16
2025-09-20 19:16 CET
36 Post-Course Procedure ↗ 2025-09-21 07:32
2025-09-21 07:32 CET
37 Pre-Course Procedure ↗ 2025-09-21 07:36
2025-09-21 07:36 CET
38 Course Director's Event Notes V4 ↗ 2025-09-21 08:53
2025-09-21 08:53 CET
39 Self Scrutineering, Car Numbers 81 and 43 after Survival Cell Change ↗ 2025-09-21 10:11
2025-09-21 10:11 CET
40 Parts and parameters been replaced and or changed during Parc Fermé ↗ 2025-09-21 11:55
2025-09-21 11:55 CET
41 Final Starting Grille ↗ 2025-09-21 12:00
2025-09-21 12:00 CET
42 Infringement - Car 81 False start - Moving before signal ↗ 81 Oscar Piastri 2025-09-21 13:46
81 Oscar Piastri 2025-09-21 13:46 CET
43 Infringement - Car 14 False start - Moving before signal ↗ 14 Fernando Alonso 2025-09-21 14:03
14 Fernando Alonso 2025-09-21 14:03 CET
44 Infringement - Car 23 - Causing a collision ↗ 23 Alexander Albon 2025-09-21 15:16
23 Alexander Albon 2025-09-21 15:16 CET
45 Provisional Course Classification ↗ 2025-09-21 14:55
2025-09-21 14:55 CET
46 Course Deleted Tour Times ↗ 2025-09-21 15:03
2025-09-21 15:03 CET
47 Course Scrutineering ↗ 2025-09-21 17:10
2025-09-21 17:10 CET
48 Final Course Classification ↗ 2025-09-21 17:20
2025-09-21 17:20 CET
49 Championnat Points ↗ 2025-09-21 17:27
2025-09-21 17:27 CET
FIA official decisions and documents (fia.com) · PDF original PDF links
Record Basis · Calculation basis
Course order is the final classification(post-race penalties applied) · les qualifications session data 2003+ · lap times 1996+ · pit stops 2012+ (pit-lane transit, not stationary time) · Abandon = Finished(Finished·+N Tours) non-Finished statuses
Sources des données: Jolpica-F1 (Ergast compatible API) · weather·Direction de course OpenF1 (2023+) · Last fetched: 2026-09-05 23:38